createdAt,value
2023-04-09T00:01:33.673Z,10.23
2023-04-09T00:04:00.999Z,6.90
2023-04-09T00:06:27.634Z,7.22
2023-04-09T00:08:54.290Z,7.65
2023-04-09T00:11:21.572Z,7.63
2023-04-09T00:13:48.154Z,7.88
2023-04-09T00:16:14.800Z,7.72
2023-04-09T00:18:41.758Z,8.35
2023-04-09T00:21:08.852Z,7.25
2023-04-09T00:23:35.981Z,7.88
2023-04-09T00:26:02.700Z,9.40
2023-04-09T00:28:29.363Z,8.30
2023-04-09T00:30:55.906Z,7.40
2023-04-09T00:33:22.500Z,8.13
2023-04-09T00:35:49.133Z,7.55
2023-04-09T00:38:15.707Z,6.22
2023-04-09T00:40:42.290Z,7.80
2023-04-09T00:43:09.124Z,7.82
2023-04-09T00:45:36.494Z,8.57
2023-04-09T00:48:03.316Z,7.38
2023-04-09T00:50:29.952Z,7.07
2023-04-09T00:52:56.538Z,6.35
2023-04-09T00:55:23.584Z,6.32
2023-04-09T00:57:50.252Z,7.25
2023-04-09T01:00:16.889Z,7.63
2023-04-09T01:02:44.072Z,6.90
2023-04-09T01:05:12.064Z,7.28
2023-04-09T01:08:09.004Z,7.20
2023-04-09T01:10:43.760Z,8.10
2023-04-09T01:13:13.708Z,7.78
2023-04-09T01:15:47.212Z,8.00
2023-04-09T01:18:36.820Z,7.18
2023-04-09T01:21:09.170Z,6.57
2023-04-09T01:23:58.466Z,7.90
2023-04-09T01:26:46.267Z,8.02
2023-04-09T01:29:15.533Z,7.03
2023-04-09T01:31:44.194Z,7.63
2023-04-09T01:34:12.979Z,6.93
2023-04-09T01:36:41.899Z,7.40
2023-04-09T01:39:08.937Z,7.75
2023-04-09T01:41:36.597Z,6.35
2023-04-09T01:44:04.323Z,7.85
2023-04-09T01:46:32.169Z,7.60
2023-04-09T01:48:59.535Z,8.07
2023-04-09T01:51:27.329Z,7.93
2023-04-09T01:53:54.324Z,7.43
2023-04-09T01:56:21.353Z,9.38
2023-04-09T01:58:47.995Z,7.82
2023-04-09T02:01:24.123Z,7.53
2023-04-09T02:04:05.376Z,7.97
2023-04-09T02:06:51.848Z,7.40
2023-04-09T02:09:21.297Z,8.05
2023-04-09T02:11:50.316Z,7.38
2023-04-09T02:14:18.675Z,6.82
2023-04-09T02:16:46.572Z,6.88
2023-04-09T02:19:13.119Z,7.90
2023-04-09T02:21:39.613Z,9.40
2023-04-09T02:24:06.269Z,7.80
2023-04-09T02:26:32.757Z,7.90
2023-04-09T02:28:59.294Z,7.07
2023-04-09T02:31:25.941Z,8.02
2023-04-09T02:33:54.100Z,6.88
2023-04-09T02:36:20.813Z,8.27
2023-04-09T02:38:47.378Z,7.63
2023-04-09T02:41:14.068Z,8.00
2023-04-09T02:43:40.618Z,7.63
2023-04-09T02:46:07.420Z,7.88
2023-04-09T02:48:33.967Z,9.73
2023-04-09T02:51:00.567Z,7.22
2023-04-09T02:53:27.268Z,7.55
2023-04-09T02:55:53.808Z,8.18
2023-04-09T02:58:20.427Z,7.75
2023-04-09T03:00:46.996Z,7.07
2023-04-09T03:03:13.708Z,8.23
2023-04-09T03:05:40.528Z,8.27
2023-04-09T03:08:07.038Z,8.50
2023-04-09T03:10:33.595Z,6.78
2023-04-09T03:13:00.230Z,7.93
2023-04-09T03:15:26.844Z,9.23
2023-04-09T03:17:53.425Z,8.25
2023-04-09T03:20:19.920Z,8.05
2023-04-09T03:22:46.448Z,8.23
2023-04-09T03:25:13.012Z,6.78
2023-04-09T03:27:39.602Z,7.60
2023-04-09T03:30:06.616Z,8.20
2023-04-09T03:32:33.120Z,8.75
2023-04-09T03:34:59.661Z,7.78
2023-04-09T03:37:26.163Z,7.47
2023-04-09T03:39:52.666Z,6.30
2023-04-09T03:42:19.215Z,7.00
2023-04-09T03:44:45.719Z,7.65
2023-04-09T03:47:12.285Z,7.68
2023-04-09T03:49:38.924Z,7.82
2023-04-09T03:52:06.790Z,8.50
2023-04-09T03:54:33.319Z,6.70
2023-04-09T03:56:59.899Z,6.97
2023-04-09T03:59:26.420Z,6.13
2023-04-09T04:01:53.047Z,6.78
2023-04-09T04:04:22.080Z,7.32
2023-04-09T04:06:50.377Z,8.15
2023-04-09T04:09:16.909Z,7.45
2023-04-09T04:11:43.483Z,7.78
2023-04-09T04:14:10.270Z,6.68
2023-04-09T04:16:36.851Z,7.80
2023-04-09T04:19:03.380Z,7.03
2023-04-09T04:21:29.904Z,7.50
2023-04-09T04:23:56.433Z,8.48
2023-04-09T04:26:22.947Z,7.70
2023-04-09T04:28:49.674Z,6.88
2023-04-09T04:31:16.362Z,7.38
2023-04-09T04:33:43.197Z,7.70
2023-04-09T04:36:14.038Z,6.88
2023-04-09T04:38:41.784Z,6.80
2023-04-09T04:41:08.660Z,6.70
2023-04-09T04:43:35.391Z,7.03
2023-04-09T04:46:02.040Z,7.30
2023-04-09T04:48:29.178Z,7.25
2023-04-09T04:50:57.218Z,6.10
2023-04-09T04:53:24.331Z,7.78
2023-04-09T04:55:51.302Z,6.88
2023-04-09T04:58:17.972Z,7.43
2023-04-09T05:00:45.092Z,8.48
2023-04-09T05:03:12.331Z,7.53
2023-04-09T05:05:38.894Z,8.93
2023-04-09T05:08:05.464Z,9.18
2023-04-09T05:10:31.959Z,10.48
2023-04-09T05:12:58.444Z,7.45
2023-04-09T05:15:24.997Z,7.55
2023-04-09T05:17:51.638Z,8.05
2023-04-09T05:20:18.267Z,7.47
2023-04-09T05:22:44.822Z,8.50
2023-04-09T05:25:11.421Z,7.65
2023-04-09T05:27:37.931Z,8.25
2023-04-09T05:30:04.710Z,9.98
2023-04-09T05:32:31.349Z,7.90
2023-04-09T05:34:57.937Z,8.52
2023-04-09T05:37:24.513Z,8.20
2023-04-09T05:39:51.047Z,7.20
2023-04-09T05:42:17.557Z,7.80
2023-04-09T05:44:44.028Z,6.95
2023-04-09T05:47:10.591Z,8.27
2023-04-09T05:49:37.453Z,7.60
2023-04-09T05:52:04.020Z,8.30
2023-04-09T05:54:31.132Z,8.98
2023-04-09T05:56:57.624Z,7.40
2023-04-09T05:59:24.235Z,7.40
2023-04-09T06:01:51.032Z,8.73
2023-04-09T06:04:17.722Z,8.05
2023-04-09T06:06:44.320Z,8.07
2023-04-09T06:09:10.853Z,8.52
2023-04-09T06:11:37.469Z,9.25
2023-04-09T06:14:03.993Z,8.65
2023-04-09T06:16:30.588Z,8.80
2023-04-09T06:18:57.411Z,9.00
2023-04-09T06:21:24.103Z,9.40
2023-04-09T06:23:51.731Z,8.52
2023-04-09T06:26:18.600Z,8.43
2023-04-09T06:28:45.173Z,9.75
2023-04-09T06:31:12.221Z,8.63
2023-04-09T06:33:38.811Z,8.85
2023-04-09T06:36:05.610Z,9.15
2023-04-09T06:38:32.237Z,7.70
2023-04-09T06:40:58.762Z,8.38
2023-04-09T06:43:25.535Z,9.70
2023-04-09T06:45:52.103Z,7.75
2023-04-09T06:48:18.635Z,10.88
2023-04-09T06:50:45.607Z,9.48
2023-04-09T06:53:12.176Z,11.73
2023-04-09T06:55:38.730Z,12.05
2023-04-09T06:58:05.783Z,11.75
2023-04-09T07:00:32.359Z,11.30
2023-04-09T07:02:59.301Z,10.98
2023-04-09T07:05:26.328Z,12.73
2023-04-09T07:07:52.888Z,14.43
2023-04-09T07:10:19.512Z,14.93
2023-04-09T07:12:46.083Z,14.82
2023-04-09T07:15:12.688Z,14.75
2023-04-09T07:17:39.227Z,70.30
2023-04-09T07:20:06.271Z,129.20
2023-04-09T07:22:32.859Z,120.07
2023-04-09T07:24:59.584Z,123.25
2023-04-09T07:27:27.865Z,103.35
2023-04-09T07:29:58.731Z,103.57
2023-04-09T07:32:26.811Z,94.72
2023-04-09T07:34:54.225Z,87.18
2023-04-09T07:37:21.119Z,76.78
2023-04-09T07:39:48.198Z,76.65
2023-04-09T07:42:14.836Z,70.93
2023-04-09T07:44:41.398Z,73.95
2023-04-09T07:47:08.669Z,71.22
2023-04-09T07:49:38.826Z,60.55
2023-04-09T07:52:06.393Z,68.72
2023-04-09T07:54:33.723Z,65.45
2023-04-09T07:57:03.987Z,60.35
2023-04-09T07:59:31.596Z,61.75
2023-04-09T08:01:58.766Z,57.35
2023-04-09T08:04:25.796Z,56.30
2023-04-09T08:06:53.589Z,52.63
2023-04-09T08:09:21.254Z,49.03
2023-04-09T08:11:49.084Z,50.00
2023-04-09T08:14:16.940Z,52.47
2023-04-09T08:16:46.304Z,49.75
2023-04-09T08:19:14.759Z,46.47
2023-04-09T08:21:43.198Z,44.22
2023-04-09T08:24:11.537Z,42.40
2023-04-09T08:26:39.554Z,45.35
2023-04-09T08:29:06.259Z,45.85
2023-04-09T08:31:33.154Z,45.17
2023-04-09T08:33:59.750Z,45.17
2023-04-09T08:36:30.508Z,40.92
2023-04-09T08:38:57.140Z,43.25
2023-04-09T08:41:25.577Z,45.22
2023-04-09T08:43:58.157Z,41.08
2023-04-09T08:46:26.103Z,41.63
2023-04-09T08:48:53.235Z,39.90
2023-04-09T08:51:21.980Z,38.85
2023-04-09T08:54:01.480Z,41.70
2023-04-09T08:56:30.526Z,37.63
2023-04-09T08:58:57.557Z,36.00
2023-04-09T09:01:28.961Z,34.78
2023-04-09T09:04:09.695Z,34.25
2023-04-09T09:06:38.808Z,36.53
2023-04-09T09:09:16.427Z,37.38
2023-04-09T09:11:48.635Z,38.88
2023-04-09T09:14:18.218Z,40.15
2023-04-09T09:17:04.486Z,37.60
2023-04-09T09:19:33.623Z,39.95
2023-04-09T09:22:11.109Z,36.05
2023-04-09T09:24:49.918Z,40.88
2023-04-09T09:27:33.461Z,36.92
2023-04-09T09:30:01.393Z,36.95
2023-04-09T09:32:28.091Z,34.78
2023-04-09T09:35:06.104Z,35.08
2023-04-09T09:37:33.640Z,32.15
2023-04-09T09:40:01.223Z,36.67
2023-04-09T09:42:27.945Z,32.88
2023-04-09T09:44:55.278Z,33.17
2023-04-09T09:47:22.967Z,32.65
2023-04-09T09:49:50.337Z,32.28
2023-04-09T09:52:26.913Z,33.22
2023-04-09T09:54:55.830Z,33.50
2023-04-09T09:57:26.136Z,29.50
2023-04-09T10:00:01.131Z,34.22
2023-04-09T10:02:32.978Z,28.48
2023-04-09T10:05:04.242Z,32.00
2023-04-09T10:07:31.056Z,30.23
2023-04-09T10:10:01.021Z,32.65
2023-04-09T10:12:28.309Z,34.45
2023-04-09T10:15:00.503Z,41.45
2023-04-09T10:17:27.068Z,39.58
2023-04-09T10:20:32.448Z,35.05
2023-04-09T10:23:04.107Z,36.63
2023-04-09T10:25:30.885Z,41.97
2023-04-09T10:28:02.220Z,40.00
2023-04-09T10:30:36.549Z,35.92
2023-04-09T10:33:15.025Z,34.33
2023-04-09T10:35:42.178Z,32.28
2023-04-09T10:38:14.063Z,39.53
2023-04-09T10:40:42.905Z,33.47
2023-04-09T10:43:10.577Z,32.15
2023-04-09T10:45:41.980Z,33.30
2023-04-09T10:48:15.706Z,33.80
2023-04-09T10:53:23.806Z,29.48
2023-04-09T10:55:52.539Z,28.90
2023-04-09T10:58:19.845Z,30.80
2023-04-09T11:00:48.599Z,35.13
2023-04-09T11:03:27.405Z,30.52
2023-04-09T11:06:10.473Z,31.08
2023-04-09T11:08:42.630Z,29.48
2023-04-09T11:11:09.421Z,30.08
2023-04-09T11:13:36.165Z,32.15
2023-04-09T11:16:06.870Z,34.90
2023-04-09T11:18:35.530Z,30.70
2023-04-09T11:21:04.189Z,27.45
2023-04-09T11:23:32.151Z,32.10
2023-04-09T11:25:58.776Z,27.20
2023-04-09T11:28:26.312Z,28.88
2023-04-09T11:30:53.383Z,28.15
2023-04-09T11:33:20.680Z,28.25
2023-04-09T11:35:48.308Z,25.13
2023-04-09T11:38:15.023Z,26.30
2023-04-09T11:40:49.773Z,23.92
2023-04-09T11:43:17.680Z,26.02
2023-04-09T11:45:44.856Z,26.63
2023-04-09T11:48:12.912Z,24.55
2023-04-09T11:50:39.624Z,23.55
2023-04-09T11:53:19.570Z,23.58
2023-04-09T11:55:49.721Z,23.48
2023-04-09T11:58:17.370Z,24.20
2023-04-09T12:00:44.112Z,20.27
2023-04-09T12:03:11.713Z,25.70
2023-04-09T12:05:41.148Z,22.00
2023-04-09T12:08:08.922Z,24.95
2023-04-09T12:10:38.207Z,23.73
2023-04-09T12:13:13.784Z,22.55
2023-04-09T12:15:43.360Z,20.33
2023-04-09T12:18:12.452Z,21.45
2023-04-09T12:20:49.658Z,19.80
2023-04-09T12:23:16.502Z,20.80
2023-04-09T12:25:44.722Z,18.83
2023-04-09T12:28:15.480Z,21.63
2023-04-09T12:30:45.677Z,20.58
2023-04-09T12:33:12.403Z,19.75
2023-04-09T12:35:39.104Z,19.42
2023-04-09T12:38:05.816Z,16.90
2023-04-09T12:40:32.459Z,23.00
2023-04-09T12:42:59.004Z,20.17
2023-04-09T12:45:25.886Z,16.45
2023-04-09T12:47:52.920Z,19.65
2023-04-09T12:50:19.646Z,19.10
2023-04-09T12:52:46.354Z,16.48
2023-04-09T12:55:14.046Z,18.52
2023-04-09T12:57:44.966Z,17.70
2023-04-09T13:00:12.237Z,16.95
2023-04-09T13:02:38.990Z,16.38
2023-04-09T13:05:05.939Z,17.27
2023-04-09T13:07:32.529Z,16.05
2023-04-09T13:09:59.187Z,17.00
2023-04-09T13:12:26.101Z,17.02
2023-04-09T13:14:54.470Z,19.23
2023-04-09T13:17:21.863Z,17.98
2023-04-09T13:19:48.781Z,15.70
2023-04-09T13:22:15.497Z,16.52
2023-04-09T13:24:43.506Z,16.80
2023-04-09T13:27:11.283Z,16.70
2023-04-09T13:29:38.606Z,16.77
2023-04-09T13:32:07.482Z,14.98
2023-04-09T13:34:34.992Z,16.13
2023-04-09T13:37:02.852Z,17.27
2023-04-09T13:39:29.436Z,15.23
2023-04-09T13:41:56.280Z,15.02
2023-04-09T13:44:24.607Z,18.45
2023-04-09T13:46:51.416Z,14.63
2023-04-09T13:49:18.292Z,15.80
2023-04-09T13:51:45.253Z,14.10
2023-04-09T13:54:11.899Z,14.32
2023-04-09T13:56:39.161Z,13.70
2023-04-09T13:59:06.529Z,14.35
2023-04-09T14:01:33.805Z,20.90
2023-04-09T14:04:00.725Z,15.35
2023-04-09T14:06:27.412Z,13.63
2023-04-09T14:08:54.197Z,15.15
2023-04-09T14:11:21.221Z,12.43
2023-04-09T14:13:48.493Z,16.48
2023-04-09T14:16:15.688Z,14.52
2023-04-09T14:18:42.330Z,13.85
2023-04-09T14:21:10.348Z,12.82
2023-04-09T14:23:38.729Z,13.85
2023-04-09T14:26:06.540Z,14.30
2023-04-09T14:28:33.588Z,13.13
2023-04-09T14:31:00.306Z,12.80
2023-04-09T14:33:27.390Z,13.80
2023-04-09T14:35:54.044Z,14.02
2023-04-09T14:38:20.697Z,13.27
2023-04-09T14:40:47.468Z,16.30
2023-04-09T14:43:14.279Z,14.65
2023-04-09T14:45:41.018Z,13.88
2023-04-09T14:48:07.765Z,13.55
2023-04-09T14:50:34.830Z,13.02
2023-04-09T14:53:01.493Z,14.10
2023-04-09T14:55:28.314Z,19.50
2023-04-09T14:57:54.950Z,18.60
2023-04-09T15:00:21.796Z,15.63
2023-04-09T15:02:48.944Z,14.02
2023-04-09T15:05:16.064Z,13.95
2023-04-09T15:07:43.644Z,13.35
2023-04-09T15:10:10.976Z,14.27
2023-04-09T15:12:37.524Z,12.75
2023-04-09T15:15:08.663Z,14.40
2023-04-09T15:17:35.820Z,15.85
2023-04-09T15:20:02.687Z,12.25
2023-04-09T15:22:29.257Z,11.15
2023-04-09T15:24:55.955Z,13.95
2023-04-09T15:27:22.726Z,11.68
2023-04-09T15:29:49.267Z,13.75
2023-04-09T15:32:15.884Z,15.02
2023-04-09T15:34:43.682Z,12.60
2023-04-09T15:37:10.318Z,11.23
2023-04-09T15:39:37.217Z,13.45
2023-04-09T15:42:03.754Z,11.57
2023-04-09T15:44:31.264Z,13.25
2023-04-09T15:46:57.847Z,13.07
2023-04-09T15:49:24.514Z,12.60
2023-04-09T15:51:51.089Z,11.38
2023-04-09T15:54:17.656Z,12.38
2023-04-09T15:56:44.354Z,13.00
2023-04-09T15:59:10.935Z,12.35
2023-04-09T16:01:37.609Z,12.68
2023-04-09T16:04:04.925Z,11.55
2023-04-09T16:06:31.878Z,9.77
2023-04-09T16:08:58.697Z,9.95
2023-04-09T16:11:26.038Z,10.93
2023-04-09T16:13:52.725Z,10.20
2023-04-09T16:16:19.642Z,9.18
2023-04-09T16:18:46.279Z,9.63
2023-04-09T16:21:12.860Z,11.10
2023-04-09T16:23:39.897Z,10.52
2023-04-09T16:26:07.035Z,9.43
2023-04-09T16:28:33.682Z,9.05
2023-04-09T16:31:00.388Z,8.70
2023-04-09T16:33:27.153Z,9.93
2023-04-09T16:35:53.724Z,9.05
2023-04-09T16:38:20.371Z,8.00
2023-04-09T16:40:46.980Z,8.50
2023-04-09T16:43:13.462Z,9.23
2023-04-09T16:45:40.031Z,8.88
2023-04-09T16:48:12.016Z,9.20
2023-04-09T16:50:42.891Z,8.25
2023-04-09T16:53:09.831Z,8.73
2023-04-09T16:55:36.612Z,9.40
2023-04-09T16:58:03.368Z,8.50
2023-04-09T17:00:29.974Z,8.65
2023-04-09T17:02:57.763Z,9.98
2023-04-09T17:05:24.947Z,16.83
2023-04-09T17:07:52.439Z,9.68
2023-04-09T17:10:19.536Z,11.55
2023-04-09T17:12:46.128Z,10.13
2023-04-09T17:15:12.748Z,9.38
2023-04-09T17:17:39.404Z,9.15
2023-04-09T17:20:06.636Z,10.35
2023-04-09T17:22:35.065Z,6.88
2023-04-09T17:25:03.830Z,8.38
2023-04-09T17:27:31.301Z,10.00
2023-04-09T17:29:58.125Z,7.65
2023-04-09T17:32:24.689Z,6.90
2023-04-09T17:34:51.351Z,8.40
2023-04-09T17:37:17.873Z,7.93
2023-04-09T17:39:44.401Z,7.55
2023-04-09T17:42:14.242Z,8.57
2023-04-09T17:44:42.071Z,8.80
2023-04-09T17:47:09.032Z,6.93
2023-04-09T17:49:35.590Z,6.97
2023-04-09T17:52:02.240Z,7.53
2023-04-09T17:54:35.025Z,6.80
2023-04-09T17:57:04.140Z,8.55
2023-04-09T17:59:31.184Z,9.13
2023-04-09T18:01:57.927Z,12.90
2023-04-09T18:04:24.939Z,10.70
2023-04-09T18:06:51.836Z,10.43
2023-04-09T18:09:18.764Z,16.60
2023-04-09T18:11:46.293Z,18.42
2023-04-09T18:14:12.977Z,22.75
2023-04-09T18:16:39.773Z,16.77
2023-04-09T18:19:07.292Z,16.17
2023-04-09T18:21:36.666Z,15.10
2023-04-09T18:24:04.176Z,16.65
2023-04-09T18:26:31.346Z,17.52
2023-04-09T18:28:59.970Z,20.45
2023-04-09T18:31:27.608Z,18.05
2023-04-09T18:33:54.254Z,14.90
2023-04-09T18:36:20.831Z,13.98
2023-04-09T18:38:47.377Z,18.83
2023-04-09T18:41:22.320Z,18.30
2023-04-09T18:43:48.858Z,15.95
2023-04-09T18:46:15.462Z,14.23
2023-04-09T18:48:43.352Z,13.07
2023-04-09T18:51:10.629Z,17.30
2023-04-09T18:53:37.747Z,15.38
2023-04-09T18:56:04.484Z,12.43
2023-04-09T18:58:31.361Z,23.00
2023-04-09T19:00:58.260Z,19.75
2023-04-09T19:03:25.417Z,19.40
2023-04-09T19:05:53.218Z,16.33
2023-04-09T19:08:19.762Z,19.83
2023-04-09T19:10:47.687Z,12.15
2023-04-09T19:13:14.368Z,20.88
2023-04-09T19:15:40.874Z,20.00
2023-04-09T19:18:07.777Z,14.05
2023-04-09T19:20:34.354Z,16.42
2023-04-09T19:23:01.038Z,14.43
2023-04-09T19:25:28.804Z,21.55
2023-04-09T19:27:56.521Z,15.77
2023-04-09T19:30:23.113Z,16.80
2023-04-09T19:32:49.670Z,15.88
2023-04-09T19:35:16.853Z,14.95
2023-04-09T19:37:43.540Z,16.45
2023-04-09T19:40:10.625Z,12.25
2023-04-09T19:42:37.176Z,11.32
2023-04-09T19:45:03.922Z,11.40
2023-04-09T19:47:30.714Z,14.52
2023-04-09T19:49:57.300Z,24.25
2023-04-09T19:52:24.215Z,12.98
2023-04-09T19:54:54.985Z,14.73
2023-04-09T19:57:21.935Z,12.70
2023-04-09T19:59:49.843Z,15.93
2023-04-09T20:02:16.686Z,12.38
2023-04-09T20:04:43.326Z,13.80
2023-04-09T20:07:09.875Z,13.65
2023-04-09T20:09:41.240Z,12.40
2023-04-09T20:12:10.904Z,14.52
2023-04-09T20:14:38.354Z,13.10
2023-04-09T20:17:06.325Z,15.32
2023-04-09T20:19:32.995Z,12.85
2023-04-09T20:22:02.529Z,12.43
2023-04-09T20:24:29.086Z,14.38
2023-04-09T20:26:56.191Z,11.88
2023-04-09T20:29:22.803Z,10.45
2023-04-09T20:31:49.442Z,9.63
2023-04-09T20:34:16.135Z,11.85
2023-04-09T20:36:43.946Z,13.45
2023-04-09T20:39:11.591Z,10.25
2023-04-09T20:41:38.401Z,11.05
2023-04-09T20:44:04.964Z,14.02
2023-04-09T20:46:31.725Z,13.82
2023-04-09T20:48:58.322Z,12.30
2023-04-09T20:51:24.880Z,10.02
2023-04-09T20:53:51.960Z,10.98
2023-04-09T20:56:18.631Z,11.60
2023-04-09T20:58:45.222Z,11.50
2023-04-09T21:01:11.758Z,10.80
2023-04-09T21:03:40.095Z,9.27
2023-04-09T21:06:07.097Z,12.73
2023-04-09T21:08:33.950Z,12.85
2023-04-09T21:11:00.809Z,10.93
2023-04-09T21:13:27.462Z,10.82
2023-04-09T21:15:54.010Z,9.40
2023-04-09T21:18:20.512Z,11.30
2023-04-09T21:20:47.348Z,8.77
2023-04-09T21:23:13.882Z,10.23
2023-04-09T21:25:40.950Z,10.25
2023-04-09T21:28:07.785Z,12.02
2023-04-09T21:30:35.388Z,15.77
2023-04-09T21:33:03.748Z,12.65
2023-04-09T21:35:30.577Z,12.77
2023-04-09T21:37:57.371Z,13.93
2023-04-09T21:40:24.382Z,14.07
2023-04-09T21:42:51.495Z,12.40
2023-04-09T21:45:18.185Z,12.88
2023-04-09T21:47:45.943Z,12.73
2023-04-09T21:50:13.422Z,13.00
2023-04-09T21:52:40.096Z,13.38
2023-04-09T21:55:07.154Z,13.05
2023-04-09T21:57:33.703Z,14.55
2023-04-09T22:00:00.346Z,13.60
2023-04-09T22:02:28.049Z,14.55
2023-04-09T22:04:54.779Z,11.98
2023-04-09T22:07:21.409Z,12.45
2023-04-09T22:09:47.999Z,15.18
2023-04-09T22:12:14.635Z,15.35
2023-04-09T22:14:42.076Z,11.60
2023-04-09T22:17:08.825Z,15.10
2023-04-09T22:19:35.440Z,11.82
2023-04-09T22:22:01.989Z,14.02
2023-04-09T22:24:30.274Z,13.68
2023-04-09T22:27:01.455Z,13.68
2023-04-09T22:29:28.799Z,11.57
2023-04-09T22:31:55.840Z,13.25
2023-04-09T22:34:22.392Z,13.10
2023-04-09T22:36:49.132Z,12.52
2023-04-09T22:39:15.726Z,15.32
2023-04-09T22:41:42.286Z,13.38
2023-04-09T22:44:09.661Z,12.93
2023-04-09T22:46:36.786Z,17.55
2023-04-09T22:49:05.280Z,14.48
2023-04-09T22:51:34.545Z,14.38
2023-04-09T22:54:02.183Z,12.35
2023-04-09T22:56:31.514Z,13.15
2023-04-09T22:58:58.129Z,13.45
2023-04-09T23:01:24.861Z,13.35
2023-04-09T23:03:51.568Z,12.45
2023-04-09T23:06:18.299Z,13.10
2023-04-09T23:08:45.338Z,13.27
2023-04-09T23:11:12.194Z,10.95
2023-04-09T23:13:38.885Z,13.20
2023-04-09T23:16:09.796Z,11.80
2023-04-09T23:18:36.857Z,10.73
2023-04-09T23:21:07.484Z,12.43
2023-04-09T23:23:35.107Z,10.38
2023-04-09T23:26:02.052Z,11.55
2023-04-09T23:28:28.766Z,11.45
2023-04-09T23:30:55.747Z,11.70
2023-04-09T23:33:22.597Z,10.07
2023-04-09T23:35:49.379Z,12.00
2023-04-09T23:38:16.190Z,8.95
2023-04-09T23:40:43.045Z,10.02
2023-04-09T23:43:09.648Z,9.30
2023-04-09T23:45:36.232Z,9.68
2023-04-09T23:48:03.789Z,11.00
2023-04-09T23:50:30.406Z,8.23
2023-04-09T23:53:03.382Z,8.98
2023-04-09T23:55:30.471Z,9.02
2023-04-09T23:57:56.973Z,9.05
